Time;durP1;ratioP1;P1;durP2;ratioP2;P2;SDS_P1;SDS_P2;PMS_P1;PMS_P2;Temp;Humidity;BMP_temperature;BMP_pressure;BME280_temperature;BME280_humidity;BME280_pressure;Samples;Min_cycle;Max_cycle;Signal;HPM_P1;HPM_P2
2023/05/23 00:01:06;;;;;;;31.35;17.05;;;18.30;99.10;;;;;;5034454;28;20026;-68
2023/05/23 00:03:33;;;;;;;22.95;15.30;;;18.40;99.20;;;;;;5034509;28;20513;-69
2023/05/23 00:05:59;;;;;;;29.58;17.70;;;18.30;99.20;;;;;;5038324;28;20037;-67
2023/05/23 00:08:25;;;;;;;25.65;16.52;;;18.30;99.20;;;;;;5053869;28;20017;-70
2023/05/23 00:10:51;;;;;;;25.35;15.57;;;18.30;99.20;;;;;;5054259;28;20040;-69
2023/05/23 00:13:17;;;;;;;24.98;15.80;;;18.30;99.20;;;;;;5054153;28;20052;-69
2023/05/23 00:15:43;;;;;;;25.85;15.43;;;18.30;99.20;;;;;;5052283;28;20013;-71
2023/05/23 00:18:10;;;;;;;23.23;15.02;;;18.30;99.20;;;;;;5054045;28;20032;-68
2023/05/23 00:20:39;;;;;;;23.60;15.27;;;18.30;99.10;;;;;;5054201;28;20368;-68
2023/05/23 00:23:06;;;;;;;23.67;15.18;;;18.40;99.30;;;;;;5054192;28;20378;-68
2023/05/23 00:25:33;;;;;;;20.80;13.93;;;18.30;99.30;;;;;;5054133;28;20021;-71
2023/05/23 00:27:59;;;;;;;21.85;14.43;;;18.30;99.30;;;;;;5047091;28;20095;-68
2023/05/23 00:30:25;;;;;;;23.20;14.95;;;18.30;99.20;;;;;;5034047;28;20033;-73
2023/05/23 00:32:53;;;;;;;23.10;13.63;;;18.30;99.20;;;;;;5033872;28;20479;-70
2023/05/23 00:35:19;;;;;;;21.50;14.95;;;18.40;99.00;;;;;;5033765;28;20104;-68
2023/05/23 00:37:45;;;;;;;26.13;16.58;;;18.40;99.00;;;;;;5033028;28;20017;-71
2023/05/23 00:40:11;;;;;;;19.52;13.73;;;18.40;99.10;;;;;;5053711;28;20035;-72
2023/05/23 00:42:36;;;;;;;24.70;16.13;;;18.40;99.10;;;;;;5053498;28;20029;-70
2023/05/23 00:45:02;;;;;;;23.33;15.68;;;18.40;99.00;;;;;;5053444;28;20025;-69
2023/05/23 00:47:28;;;;;;;22.58;15.32;;;18.40;99.00;;;;;;5053573;28;20028;-69
2023/05/23 00:49:53;;;;;;;19.50;14.30;;;18.40;98.90;;;;;;5041545;28;20045;-71
2023/05/23 00:52:19;;;;;;;19.05;13.70;;;18.40;98.90;;;;;;5033382;28;20025;-72
2023/05/23 00:54:45;;;;;;;17.25;13.55;;;18.40;98.80;;;;;;5033403;28;20498;-70
2023/05/23 00:57:10;;;;;;;20.52;14.38;;;18.30;98.90;;;;;;5032809;28;20044;-70
2023/05/23 00:59:37;;;;;;;16.55;12.82;;;18.40;98.90;;;;;;5050370;28;20036;-68
2023/05/23 01:02:03;;;;;;;14.30;12.40;;;18.40;98.70;;;;;;5053206;28;20024;-68
2023/05/23 01:04:33;;;;;;;17.05;12.30;;;18.30;98.70;;;;;;5052982;28;20025;-69
2023/05/23 01:06:59;;;;;;;13.85;10.65;;;18.20;99.00;;;;;;5053141;28;20462;-70
2023/05/23 01:09:27;;;;;;;14.98;10.40;;;18.30;98.90;;;;;;5051151;28;20044;-70
2023/05/23 01:12:16;;;;;;;15.93;9.30;;;18.30;98.80;;;;;;5046739;28;20057;-70
2023/05/23 01:14:47;;;;;;;15.23;9.95;;;18.20;99.00;;;;;;5033284;28;20021;-69
2023/05/23 01:17:34;;;;;;;15.48;9.60;;;18.20;99.00;;;;;;5032798;28;20018;-70
2023/05/23 01:20:11;;;;;;;13.75;9.60;;;18.20;99.20;;;;;;5049568;28;20567;-69
2023/05/23 01:22:40;;;;;;;11.52;9.18;;;18.20;98.90;;;;;;5053539;28;20017;-71
2023/05/23 01:25:38;;;;;;;12.35;9.63;;;18.20;98.90;;;;;;5051630;28;20025;-69
2023/05/23 01:28:06;;;;;;;18.27;11.38;;;18.20;98.80;;;;;;5052376;28;20035;-71
2023/05/23 01:30:35;;;;;;;19.75;12.02;;;18.20;98.80;;;;;;5050890;28;20375;-71
2023/05/23 01:33:03;;;;;;;16.38;9.85;;;18.20;98.90;;;;;;5052838;28;20486;-72
2023/05/23 01:35:30;;;;;;;14.93;10.80;;;18.20;99.00;;;;;;5052634;28;20021;-69
2023/05/23 01:37:56;;;;;;;15.18;10.20;;;18.20;98.70;;;;;;5040503;28;20049;-68
2023/05/23 01:40:25;;;;;;;18.48;10.70;;;18.10;98.90;;;;;;5033058;28;20110;-71
2023/05/23 01:42:53;;;;;;;19.50;11.80;;;18.10;99.00;;;;;;5033048;28;20025;-69
2023/05/23 01:45:20;;;;;;;16.45;11.07;;;18.10;99.00;;;;;;5034511;28;20351;-69
2023/05/23 01:47:48;;;;;;;16.90;11.35;;;18.20;99.00;;;;;;5052608;28;20024;-68
2023/05/23 01:50:14;;;;;;;18.15;11.50;;;18.20;98.80;;;;;;5052480;28;20029;-69
2023/05/23 01:52:40;;;;;;;15.35;10.70;;;18.20;98.50;;;;;;5052680;28;20043;-71
2023/05/23 01:55:08;;;;;;;15.40;10.80;;;18.20;98.40;;;;;;5051288;28;20466;-73
2023/05/23 01:57:35;;;;;;;17.50;11.38;;;18.10;98.30;;;;;;5032579;28;20529;-71
2023/05/23 02:00:02;;;;;;;16.15;11.32;;;18.10;98.40;;;;;;5032778;28;20033;-70
2023/05/23 02:02:28;;;;;;;19.23;13.45;;;18.00;98.40;;;;;;5032580;28;20021;-72
2023/05/23 02:04:56;;;;;;;21.15;13.68;;;18.00;98.50;;;;;;5032467;28;20108;-69
2023/05/23 02:07:22;;;;;;;18.40;12.40;;;18.00;98.70;;;;;;5047733;28;20055;-68
2023/05/23 02:09:48;;;;;;;20.17;13.60;;;17.90;98.80;;;;;;5052397;28;20032;-70
2023/05/23 02:12:14;;;;;;;22.15;14.65;;;18.00;98.70;;;;;;5051297;28;20017;-71
2023/05/23 02:14:41;;;;;;;21.88;14.43;;;17.90;98.60;;;;;;5052351;28;20032;-72
2023/05/23 02:17:08;;;;;;;24.73;14.77;;;17.90;98.70;;;;;;5051202;28;20112;-69
2023/05/23 02:19:35;;;;;;;18.63;13.90;;;18.00;98.60;;;;;;5052470;28;20390;-73
2023/05/23 02:22:00;;;;;;;19.15;12.32;;;17.90;98.80;;;;;;5052697;28;20025;-69
2023/05/23 02:24:26;;;;;;;19.40;13.38;;;17.80;98.90;;;;;;5052392;28;20074;-71
2023/05/23 02:26:52;;;;;;;20.65;13.52;;;17.80;99.10;;;;;;5052425;28;20484;-70
2023/05/23 02:29:17;;;;;;;26.25;15.10;;;17.80;99.10;;;;;;5051161;28;20045;-68
2023/05/23 02:31:43;;;;;;;25.17;15.13;;;17.80;99.20;;;;;;5056068;28;20021;-70
2023/05/23 02:34:09;;;;;;;26.00;15.80;;;17.70;99.20;;;;;;5055692;28;20039;-68
2023/05/23 02:36:35;;;;;;;21.65;14.30;;;17.80;99.20;;;;;;5056177;28;20056;-70
2023/05/23 02:39:02;;;;;;;26.13;15.70;;;17.80;99.20;;;;;;5055948;28;20542;-71
2023/05/23 02:41:28;;;;;;;24.70;14.95;;;17.70;99.30;;;;;;5045681;28;20113;-69
2023/05/23 02:43:54;;;;;;;22.10;14.43;;;17.80;99.40;;;;;;5036127;28;20105;-70
2023/05/23 02:46:20;;;;;;;23.23;15.25;;;17.70;99.40;;;;;;5035427;28;20029;-70
2023/05/23 02:48:46;;;;;;;24.65;14.45;;;17.60;99.50;;;;;;5035973;28;20075;-71
2023/05/23 02:51:12;;;;;;;24.27;16.02;;;17.70;99.60;;;;;;5039792;28;20021;-72
2023/05/23 02:53:38;;;;;;;23.50;13.88;;;17.70;99.50;;;;;;5045254;28;20052;-70
2023/05/23 02:56:04;;;;;;;21.98;14.98;;;17.80;99.30;;;;;;5034812;28;20065;-70
2023/05/23 02:58:30;;;;;;;21.85;14.07;;;17.70;99.40;;;;;;5035754;28;20479;-70
2023/05/23 03:00:56;;;;;;;21.05;13.38;;;17.80;99.30;;;;;;5035204;28;20037;-71
2023/05/23 03:03:22;;;;;;;15.35;11.98;;;17.70;99.20;;;;;;5040222;28;20036;-68
2023/05/23 03:05:48;;;;;;;19.85;12.73;;;17.80;99.00;;;;;;5043301;28;20065;-69
2023/05/23 03:08:13;;;;;;;19.75;11.98;;;17.70;99.10;;;;;;5035652;28;20053;-70
2023/05/23 03:10:39;;;;;;;20.42;11.35;;;17.80;99.10;;;;;;5035409;28;20083;-70
2023/05/23 03:13:04;;;;;;;15.20;10.95;;;17.70;99.10;;;;;;5037211;28;20039;-69
2023/05/23 03:15:30;;;;;;;14.13;10.70;;;17.80;99.00;;;;;;5053966;28;20033;-71
2023/05/23 03:17:55;;;;;;;14.15;10.27;;;17.70;99.10;;;;;;5055806;28;20335;-73
2023/05/23 03:20:21;;;;;;;15.60;10.55;;;17.70;99.00;;;;;;5054338;28;20158;-70
2023/05/23 03:22:47;;;;;;;11.50;10.02;;;17.70;99.00;;;;;;5054789;28;20021;-68
2023/05/23 03:25:15;;;;;;;15.27;10.15;;;17.70;99.00;;;;;;5054552;28;20486;-73
2023/05/23 03:27:40;;;;;;;15.35;9.70;;;17.70;99.10;;;;;;5054663;28;20490;-68
2023/05/23 03:30:07;;;;;;;13.50;10.05;;;17.60;99.30;;;;;;5054594;28;20041;-70
2023/05/23 03:32:33;;;;;;;13.15;9.70;;;17.60;99.30;;;;;;5053639;28;20068;-72
2023/05/23 03:34:59;;;;;;;11.95;8.80;;;17.50;99.50;;;;;;5054461;28;20119;-70
2023/05/23 03:37:25;;;;;;;14.88;9.23;;;17.50;99.40;;;;;;5054701;28;20032;-68
2023/05/23 03:39:50;;;;;;;14.85;9.45;;;17.50;99.60;;;;;;5054810;28;20025;-70
2023/05/23 03:42:17;;;;;;;12.50;9.00;;;17.50;99.60;;;;;;5054283;28;20021;-67
2023/05/23 03:44:43;;;;;;;13.27;9.35;;;17.50;99.60;;;;;;5051914;28;20112;-69
2023/05/23 03:47:08;;;;;;;10.57;8.93;;;17.60;99.50;;;;;;5054618;28;20460;-73
2023/05/23 03:49:34;;;;;;;11.75;9.05;;;17.60;99.50;;;;;;5054524;28;20082;-68
2023/05/23 03:52:00;;;;;;;22.33;11.20;;;17.60;99.40;;;;;;5054488;28;20386;-70
2023/05/23 03:54:25;;;;;;;19.17;11.75;;;17.60;99.50;;;;;;5052850;28;20470;-69
2023/05/23 03:56:51;;;;;;;19.27;11.30;;;17.60;99.40;;;;;;5054403;28;20028;-71
2023/05/23 03:59:17;;;;;;;16.15;10.60;;;17.60;99.50;;;;;;5053205;28;20021;-69
2023/05/23 04:01:43;;;;;;;19.63;11.55;;;17.60;99.50;;;;;;5054166;28;20036;-70
2023/05/23 04:04:08;;;;;;;20.45;11.48;;;17.60;99.50;;;;;;5054403;28;20021;-69
2023/05/23 04:06:34;;;;;;;18.00;11.15;;;17.60;99.50;;;;;;5042467;28;20113;-72
2023/05/23 04:09:01;;;;;;;24.55;11.95;;;17.60;99.40;;;;;;5033988;28;20376;-68
2023/05/23 04:11:26;;;;;;;20.35;10.70;;;17.50;99.40;;;;;;5036190;28;20025;-66
2023/05/23 04:13:52;;;;;;;19.48;10.40;;;17.50;99.60;;;;;;5033929;28;20033;-68
2023/05/23 04:16:18;;;;;;;20.95;10.20;;;17.60;99.50;;;;;;5034591;28;20096;-68
2023/05/23 04:18:45;;;;;;;20.45;8.98;;;17.60;99.10;;;;;;5034250;28;20391;-68
2023/05/23 04:21:11;;;;;;;24.45;10.55;;;17.50;99.10;;;;;;5036619;28;20434;-72
2023/05/23 04:23:37;;;;;;;21.13;10.02;;;17.40;98.20;;;;;;5034156;28;20109;-70
2023/05/23 04:26:04;;;;;;;22.60;9.48;;;17.20;98.70;;;;;;5033854;28;20040;-71
2023/05/23 04:28:30;;;;;;;23.15;9.63;;;16.90;99.20;;;;;;5033329;28;20029;-72
2023/05/23 04:30:57;;;;;;;18.48;8.45;;;16.80;99.50;;;;;;5032564;28;20095;-69
2023/05/23 04:33:23;;;;;;;24.50;9.77;;;16.60;99.90;;;;;;5040611;28;20044;-71
2023/05/23 04:35:50;;;;;;;27.00;10.88;;;16.50;99.70;;;;;;5053389;28;20079;-70
2023/05/23 04:38:16;;;;;;;28.15;10.13;;;16.40;99.90;;;;;;5053807;28;20033;-72
2023/05/23 04:40:41;;;;;;;25.30;10.32;;;16.20;99.90;;;;;;5053639;28;20029;-71
2023/05/23 04:43:08;;;;;;;24.25;10.73;;;16.20;99.90;;;;;;5050991;28;20028;-72
2023/05/23 04:45:35;;;;;;;26.25;10.43;;;16.10;99.90;;;;;;5043971;28;20039;-68
2023/05/23 04:48:01;;;;;;;32.13;10.88;;;16.10;99.90;;;;;;5033290;28;20097;-68
2023/05/23 04:50:30;;;;;;;29.77;10.32;;;16.00;99.90;;;;;;5033707;28;20029;-72
2023/05/23 04:52:56;;;;;;;28.27;10.75;;;16.20;99.90;;;;;;5052356;28;20017;-71
2023/05/23 04:55:21;;;;;;;27.70;10.57;;;16.20;99.90;;;;;;5052640;28;20021;-70
2023/05/23 04:57:47;;;;;;;26.85;10.05;;;16.00;99.90;;;;;;5042409;28;20032;-69
2023/05/23 05:00:13;;;;;;;28.08;10.40;;;16.00;99.90;;;;;;5033827;28;20399;-71
2023/05/23 05:02:40;;;;;;;26.70;11.15;;;16.10;99.90;;;;;;5044696;28;20021;-70
2023/05/23 05:05:06;;;;;;;23.13;10.38;;;16.10;99.90;;;;;;5052978;28;20474;-71
2023/05/23 05:07:31;;;;;;;26.73;9.93;;;16.00;99.90;;;;;;5045202;28;20111;-68
2023/05/23 05:09:57;;;;;;;28.48;9.80;;;16.00;99.90;;;;;;5042457;28;20037;-71
2023/05/23 05:12:22;;;;;;;25.88;10.02;;;16.20;99.90;;;;;;5037101;28;20087;-69
2023/05/23 05:14:48;;;;;;;25.55;11.00;;;16.20;99.90;;;;;;5031834;28;20080;-68
2023/05/23 05:17:14;;;;;;;23.90;10.95;;;15.80;99.90;;;;;;5047056;28;20592;-67
2023/05/23 05:19:39;;;;;;;26.17;11.45;;;15.90;99.90;;;;;;5040412;28;20029;-68
2023/05/23 05:22:06;;;;;;;20.98;10.15;;;15.90;99.90;;;;;;5044588;28;20066;-71
2023/05/23 05:24:32;;;;;;;26.17;11.77;;;15.90;99.90;;;;;;5050246;28;20033;-69
2023/05/23 05:26:58;;;;;;;22.45;10.05;;;15.90;99.90;;;;;;5047072;28;20962;-71
2023/05/23 05:29:24;;;;;;;17.40;9.23;;;16.00;99.90;;;;;;5055894;28;20045;-69
2023/05/23 05:31:50;;;;;;;22.98;10.57;;;16.00;99.90;;;;;;5042741;28;20044;-70
2023/05/23 05:34:17;;;;;;;22.30;10.13;;;15.90;99.90;;;;;;5037697;28;20107;-73
2023/05/23 05:36:46;;;;;;;19.25;9.10;;;15.90;99.90;;;;;;5051208;28;20074;-67
2023/05/23 05:39:13;;;;;;;22.77;8.75;;;16.00;99.90;;;;;;5041259;28;20025;-68
2023/05/23 05:41:39;;;;;;;19.38;8.30;;;16.00;99.90;;;;;;5038752;28;20471;-71
2023/05/23 05:44:05;;;;;;;14.23;7.55;;;16.00;99.50;;;;;;5051455;28;20081;-70
2023/05/23 05:46:31;;;;;;;16.10;7.45;;;15.80;99.90;;;;;;5033194;28;20544;-68
2023/05/23 05:48:56;;;;;;;16.88;7.35;;;15.90;98.30;;;;;;5052182;28;20099;-67
2023/05/23 05:51:22;;;;;;;15.00;6.78;;;15.60;98.20;;;;;;5047633;28;20033;-68
2023/05/23 05:53:48;;;;;;;14.48;6.20;;;15.60;98.70;;;;;;5032619;28;20057;-69
2023/05/23 05:56:14;;;;;;;10.93;6.78;;;15.70;98.10;;;;;;5039403;28;20108;-71
2023/05/23 05:58:39;;;;;;;15.10;7.30;;;15.90;99.10;;;;;;5042782;28;20100;-69
2023/05/23 06:01:05;;;;;;;19.80;7.38;;;15.80;98.10;;;;;;5031186;28;20460;-71
2023/05/23 06:03:32;;;;;;;15.55;7.40;;;15.80;98.10;;;;;;5043319;28;21345;-72
2023/05/23 06:05:58;;;;;;;15.80;7.43;;;15.70;98.20;;;;;;5038921;28;20031;-72
2023/05/23 06:08:24;;;;;;;18.92;7.35;;;15.60;99.30;;;;;;5045703;28;20021;-69
2023/05/23 06:10:49;;;;;;;15.32;7.25;;;15.60;99.50;;;;;;5035192;28;20048;-70
2023/05/23 06:13:15;;;;;;;17.08;7.43;;;15.80;97.90;;;;;;5044201;28;20028;-71
2023/05/23 06:15:41;;;;;;;16.33;7.63;;;15.70;97.50;;;;;;5035621;28;20048;-71
2023/05/23 06:18:06;;;;;;;15.57;9.45;;;15.60;98.10;;;;;;5046509;28;20085;-72
2023/05/23 06:20:32;;;;;;;12.93;7.65;;;15.70;97.90;;;;;;5036300;28;20056;-70
2023/05/23 06:22:59;;;;;;;15.23;8.38;;;15.80;97.50;;;;;;5047571;28;20038;-72
2023/05/23 06:25:24;;;;;;;15.70;7.25;;;16.00;97.40;;;;;;5048032;28;20164;-69
2023/05/23 06:27:50;;;;;;;14.60;7.78;;;16.30;96.60;;;;;;5039054;28;20483;-72
2023/05/23 06:30:16;;;;;;;16.27;7.07;;;16.50;96.20;;;;;;5043894;28;20041;-68
2023/05/23 06:32:41;;;;;;;14.82;7.32;;;16.60;95.70;;;;;;5034775;28;20104;-71
2023/05/23 06:35:07;;;;;;;16.70;7.35;;;16.70;95.60;;;;;;5035506;28;20036;-69
2023/05/23 06:37:33;;;;;;;16.67;8.90;;;16.80;95.30;;;;;;5042311;28;20044;-70
2023/05/23 06:39:59;;;;;;;14.85;7.15;;;16.80;95.10;;;;;;5042439;28;20111;-71
2023/05/23 06:42:25;;;;;;;24.73;8.90;;;16.90;95.10;;;;;;5034800;28;20060;-68
2023/05/23 06:44:51;;;;;;;19.50;7.93;;;16.90;95.20;;;;;;5039795;28;20067;-70
2023/05/23 06:47:16;;;;;;;12.75;7.53;;;16.90;95.00;;;;;;5041702;28;20052;-72
2023/05/23 06:49:42;;;;;;;15.02;7.20;;;17.00;94.90;;;;;;5048285;28;20025;-71
2023/05/23 06:52:08;;;;;;;15.40;7.32;;;17.00;94.80;;;;;;5035444;28;20017;-71
2023/05/23 06:54:33;;;;;;;13.48;6.82;;;17.00;94.80;;;;;;5036592;28;20032;-71
2023/05/23 06:56:59;;;;;;;12.80;6.65;;;17.00;94.60;;;;;;5035041;28;20391;-70
2023/05/23 06:59:24;;;;;;;12.00;6.20;;;17.10;94.10;;;;;;5038747;28;20043;-70
2023/05/23 07:01:50;;;;;;;12.77;6.32;;;17.10;93.70;;;;;;5040035;28;20379;-71
2023/05/23 07:04:16;;;;;;;14.63;7.30;;;17.10;94.00;;;;;;5042119;28;20503;-68
2023/05/23 07:06:41;;;;;;;17.15;7.68;;;17.20;94.60;;;;;;5033156;28;20033;-71
2023/05/23 07:09:07;;;;;;;12.57;7.25;;;17.20;94.20;;;;;;5036000;28;20029;-68
2023/05/23 07:11:34;;;;;;;13.20;7.88;;;17.30;93.70;;;;;;5047045;28;20021;-69
2023/05/23 07:13:59;;;;;;;17.77;7.68;;;17.30;93.70;;;;;;5040828;28;20025;-69
2023/05/23 07:16:25;;;;;;;12.75;7.38;;;17.20;94.20;;;;;;5044599;28;20081;-73
2023/05/23 07:18:51;;;;;;;15.73;7.60;;;17.20;93.70;;;;;;5035998;28;20043;-68
2023/05/23 07:21:16;;;;;;;14.68;7.22;;;17.30;93.40;;;;;;5036291;28;20136;-70
2023/05/23 07:23:42;;;;;;;16.85;7.35;;;17.20;93.40;;;;;;5041339;28;20482;-71
2023/05/23 07:26:08;;;;;;;13.95;7.28;;;17.20;93.70;;;;;;5057565;28;20024;-69
2023/05/23 07:28:35;;;;;;;13.45;6.53;;;17.20;93.90;;;;;;5043972;28;20080;-72
2023/05/23 07:31:00;;;;;;;12.75;7.05;;;17.30;93.80;;;;;;5040575;28;20045;-69
2023/05/23 07:33:26;;;;;;;14.20;6.75;;;17.30;93.40;;;;;;5050675;28;20031;-68
2023/05/23 07:35:52;;;;;;;15.77;7.30;;;17.20;93.70;;;;;;5052222;28;20390;-67
2023/05/23 07:38:17;;;;;;;14.90;7.32;;;17.20;94.30;;;;;;5039770;28;20021;-69
2023/05/23 07:40:43;;;;;;;18.83;7.40;;;17.20;93.70;;;;;;5043622;28;20429;-71
2023/05/23 07:43:08;;;;;;;11.93;6.97;;;17.30;93.80;;;;;;5043323;28;20025;-71
2023/05/23 07:45:34;;;;;;;15.05;7.43;;;17.10;94.00;;;;;;5048347;28;20021;-68
2023/05/23 07:48:00;;;;;;;12.95;6.88;;;17.10;94.10;;;;;;5071353;28;20025;-70
2023/05/23 07:50:26;;;;;;;16.15;6.63;;;17.20;94.00;;;;;;5064346;28;20029;-68
2023/05/23 07:52:52;;;;;;;12.98;6.72;;;17.20;94.00;;;;;;5054407;28;20021;-69
2023/05/23 07:55:18;;;;;;;15.23;7.30;;;17.20;94.10;;;;;;5055408;28;20033;-71
2023/05/23 07:57:43;;;;;;;14.93;6.53;;;17.20;94.20;;;;;;5046228;28;20024;-72
2023/05/23 08:00:10;;;;;;;14.23;6.88;;;17.20;94.20;;;;;;5037459;28;20045;-71
2023/05/23 08:02:36;;;;;;;14.52;7.30;;;17.20;94.50;;;;;;5052302;28;20028;-70
2023/05/23 08:05:02;;;;;;;12.63;6.90;;;17.20;94.40;;;;;;5052750;28;20441;-69
2023/05/23 08:07:28;;;;;;;15.40;6.57;;;17.20;94.30;;;;;;5055725;28;20016;-70
2023/05/23 08:09:53;;;;;;;15.18;6.32;;;17.20;94.30;;;;;;5041972;28;20039;-67
2023/05/23 08:12:19;;;;;;;12.95;6.05;;;17.20;94.40;;;;;;5059041;28;20021;-67
2023/05/23 08:14:45;;;;;;;9.90;5.18;;;17.20;94.30;;;;;;5052817;28;20112;-67
2023/05/23 08:17:12;;;;;;;8.13;5.40;;;17.10;94.30;;;;;;5067221;28;20481;-67
2023/05/23 08:19:37;;;;;;;13.05;5.28;;;17.10;94.30;;;;;;5055992;28;20016;-67
2023/05/23 08:22:03;;;;;;;10.27;4.78;;;17.10;94.70;;;;;;5052605;28;20371;-67
2023/05/23 08:24:29;;;;;;;7.43;5.55;;;17.10;94.70;;;;;;5058490;28;20071;-68
2023/05/23 08:26:55;;;;;;;10.30;4.80;;;17.10;94.80;;;;;;5053980;28;20033;-67
2023/05/23 08:29:21;;;;;;;9.30;5.07;;;17.20;94.60;;;;;;5056466;28;20094;-67
2023/05/23 08:31:46;;;;;;;10.40;4.75;;;17.10;94.70;;;;;;5053898;28;20031;-68
2023/05/23 08:34:13;;;;;;;8.85;4.22;;;17.10;94.70;;;;;;5073097;28;20020;-68
2023/05/23 08:36:39;;;;;;;9.13;4.47;;;17.10;94.80;;;;;;5066789;28;20028;-67
2023/05/23 08:39:04;;;;;;;8.35;3.80;;;17.20;94.80;;;;;;5072834;28;20035;-70
2023/05/23 08:41:30;;;;;;;9.63;3.45;;;17.10;95.10;;;;;;5051224;28;20025;-67
2023/05/23 08:43:56;;;;;;;7.25;3.38;;;17.20;94.90;;;;;;5047587;28;20074;-68
2023/05/23 08:46:22;;;;;;;7.47;3.58;;;17.10;95.00;;;;;;5049505;28;20025;-69
2023/05/23 08:48:53;;;;;;;9.30;4.57;;;17.10;95.00;;;;;;5045071;28;20777;-68
2023/05/23 08:51:21;;;;;;;6.43;3.55;;;17.20;95.70;;;;;;5038038;28;20458;-71
2023/05/23 08:53:47;;;;;;;7.97;2.95;;;17.20;94.80;;;;;;5044992;28;20021;-68
2023/05/23 08:56:15;;;;;;;6.95;3.35;;;17.30;94.50;;;;;;5046549;28;20025;-68
2023/05/23 08:58:42;;;;;;;10.57;3.00;;;17.20;94.80;;;;;;5038660;28;20120;-68
2023/05/23 09:01:12;;;;;;;5.13;2.35;;;17.20;94.40;;;;;;5041128;28;20477;-68
2023/05/23 09:03:39;;;;;;;10.27;3.38;;;17.30;94.50;;;;;;5051791;28;20053;-68
2023/05/23 09:06:09;;;;;;;7.32;2.50;;;17.30;94.30;;;;;;5048484;28;20018;-69
2023/05/23 09:08:35;;;;;;;6.70;2.55;;;17.30;94.40;;;;;;5052079;28;20067;-68
2023/05/23 09:11:02;;;;;;;11.75;3.15;;;17.30;94.10;;;;;;5051533;28;20047;-68
2023/05/23 09:13:30;;;;;;;8.77;3.20;;;17.30;94.60;;;;;;5048260;28;20067;-68
2023/05/23 09:16:01;;;;;;;8.02;2.63;;;17.40;94.10;;;;;;5049622;28;20174;-67
2023/05/23 09:18:35;;;;;;;8.52;3.17;;;17.30;93.80;;;;;;5048268;28;20025;-67
2023/05/23 09:21:01;;;;;;;8.23;2.78;;;17.30;93.80;;;;;;5048300;28;20676;-69
2023/05/23 09:23:35;;;;;;;8.10;2.85;;;17.40;93.40;;;;;;5047951;28;20021;-68
2023/05/23 09:26:05;;;;;;;8.65;3.17;;;17.40;93.30;;;;;;5055395;28;20021;-70
2023/05/23 09:28:31;;;;;;;7.05;3.15;;;17.40;93.90;;;;;;5047589;28;20393;-67
2023/05/23 09:30:59;;;;;;;7.65;2.80;;;17.40;93.30;;;;;;5052753;28;20475;-68
2023/05/23 09:33:32;;;;;;;6.18;2.67;;;17.50;92.60;;;;;;5067177;28;20115;-68
2023/05/23 09:35:58;;;;;;;9.20;3.00;;;17.50;92.70;;;;;;5053290;28;20082;-68
2023/05/23 09:38:24;;;;;;;7.50;3.10;;;17.50;92.40;;;;;;5050272;28;20029;-68
2023/05/23 09:40:49;;;;;;;7.43;3.03;;;17.50;92.40;;;;;;5051702;28;20029;-68
2023/05/23 09:43:16;;;;;;;9.95;2.80;;;17.50;92.90;;;;;;5053924;28;20243;-68
2023/05/23 09:45:42;;;;;;;8.82;2.83;;;17.60;92.20;;;;;;5065534;28;20055;-67
2023/05/23 09:48:12;;;;;;;9.75;2.88;;;17.60;91.80;;;;;;5071708;28;20385;-67
2023/05/23 09:50:38;;;;;;;12.68;3.05;;;17.60;91.40;;;;;;5048950;28;20123;-68
2023/05/23 09:53:04;;;;;;;11.23;3.05;;;17.60;91.90;;;;;;5042220;28;20132;-70
2023/05/23 09:55:29;;;;;;;13.18;4.13;;;17.60;92.00;;;;;;5043409;28;20518;-68
2023/05/23 09:57:58;;;;;;;9.25;3.33;;;17.60;92.60;;;;;;5045839;28;20036;-69
2023/05/23 10:00:24;;;;;;;12.45;3.33;;;17.70;92.60;;;;;;5050516;28;20367;-70
2023/05/23 10:02:54;;;;;;;12.98;3.22;;;17.70;91.80;;;;;;5056863;28;20476;-69
2023/05/23 10:05:40;;;;;;;9.57;2.85;;;17.70;92.10;;;;;;5056888;28;20120;-72
2023/05/23 10:08:25;;;;;;;9.90;3.25;;;17.80;92.00;;;;;;5047274;28;20470;-70
2023/05/23 10:11:00;;;;;;;6.20;2.72;;;17.80;91.70;;;;;;5059891;28;20041;-69
2023/05/23 10:13:27;;;;;;;15.63;3.22;;;17.80;92.10;;;;;;5049373;28;20056;-71
2023/05/23 10:16:11;;;;;;;15.82;3.70;;;17.90;91.40;;;;;;5051061;28;20067;-70
2023/05/23 10:18:46;;;;;;;10.27;3.00;;;17.90;91.60;;;;;;5044426;28;20032;-69
2023/05/23 10:21:23;;;;;;;10.55;3.40;;;17.90;92.10;;;;;;5051902;28;20025;-68
2023/05/23 10:23:49;;;;;;;11.82;2.88;;;17.90;92.60;;;;;;5042288;28;20044;-67
2023/05/23 10:26:16;;;;;;;11.05;3.10;;;17.90;91.30;;;;;;5050628;28;20021;-66
2023/05/23 10:28:44;;;;;;;12.23;2.92;;;17.90;90.90;;;;;;5047735;28;20025;-68
2023/05/23 10:31:11;;;;;;;10.73;3.38;;;18.00;91.60;;;;;;5032401;28;20049;-69
2023/05/23 10:33:46;;;;;;;9.88;3.05;;;18.00;91.20;;;;;;5047722;28;20025;-70
2023/05/23 10:36:21;;;;;;;7.57;3.05;;;18.00;91.10;;;;;;5046803;28;20158;-70
2023/05/23 10:39:21;;;;;;;12.23;3.40;;;18.00;91.00;;;;;;5035001;28;20021;-68
2023/05/23 10:42:00;;;;;;;10.48;2.95;;;18.10;91.60;;;;;;5037901;28;20171;-67
2023/05/23 10:44:29;;;;;;;10.60;2.80;;;18.10;91.20;;;;;;5049519;28;20029;-68
2023/05/23 10:46:56;;;;;;;11.25;3.28;;;18.10;90.90;;;;;;5048813;28;20111;-68
2023/05/23 10:49:43;;;;;;;11.98;3.35;;;18.10;90.60;;;;;;5035345;28;20100;-69
2023/05/23 10:52:11;;;;;;;11.52;3.45;;;18.10;90.00;;;;;;5043206;28;20076;-68
2023/05/23 10:54:45;;;;;;;10.75;2.72;;;18.10;90.10;;;;;;5053157;28;20119;-68
2023/05/23 10:57:15;;;;;;;12.82;3.28;;;18.10;90.30;;;;;;5052960;28;20024;-68
2023/05/23 10:59:41;;;;;;;13.15;3.45;;;18.10;90.10;;;;;;5049802;28;20033;-68
2023/05/23 11:02:18;;;;;;;12.45;3.30;;;18.10;89.90;;;;;;5042719;28;20029;-70
2023/05/23 11:04:45;;;;;;;10.57;3.33;;;18.10;90.60;;;;;;5055373;28;20029;-73
2023/05/23 11:07:30;;;;;;;14.68;3.85;;;18.20;89.80;;;;;;5053029;28;20033;-72
2023/05/23 11:10:10;;;;;;;13.93;3.47;;;18.20;89.10;;;;;;5046905;28;20076;-70
2023/05/23 11:12:38;;;;;;;12.23;3.55;;;18.20;89.30;;;;;;5042486;28;20036;-68
2023/05/23 11:15:21;;;;;;;14.10;3.30;;;18.30;88.50;;;;;;5051568;28;20380;-70
2023/05/23 11:17:51;;;;;;;12.82;3.00;;;18.20;89.30;;;;;;5042647;28;20029;-72
2023/05/23 11:20:22;;;;;;;17.27;3.72;;;18.20;88.00;;;;;;5045611;28;20021;-67
2023/05/23 11:23:08;;;;;;;9.93;3.00;;;18.20;87.90;;;;;;5048924;28;20033;-72
2023/05/23 11:25:42;;;;;;;14.52;3.85;;;18.30;90.10;;;;;;5048249;28;20037;-73
2023/05/23 11:28:09;;;;;;;11.85;2.83;;;18.30;88.80;;;;;;5040667;28;20131;-72
2023/05/23 11:30:38;;;;;;;11.23;3.40;;;18.30;89.80;;;;;;5047228;28;20040;-77
2023/05/23 11:33:12;;;;;;;14.40;3.92;;;18.30;89.30;;;;;;5050203;28;20063;-70
2023/05/23 11:35:40;;;;;;;15.60;3.17;;;18.40;90.00;;;;;;5054118;28;20135;-69
2023/05/23 11:38:05;;;;;;;13.32;3.45;;;18.30;90.30;;;;;;5052859;28;20390;-71
2023/05/23 11:40:36;;;;;;;11.18;3.30;;;18.40;90.40;;;;;;5053613;28;20036;-70
2023/05/23 11:43:04;;;;;;;16.25;3.53;;;18.40;89.30;;;;;;5053688;28;20021;-73
2023/05/23 11:45:31;;;;;;;13.60;3.80;;;18.40;90.30;;;;;;5041370;28;20036;-71
2023/05/23 11:47:57;;;;;;;11.80;3.47;;;18.40;90.20;;;;;;5050320;28;20025;-70
2023/05/23 11:50:25;;;;;;;11.48;3.40;;;18.50;87.40;;;;;;5044689;28;20025;-68
2023/05/23 11:52:53;;;;;;;17.27;4.20;;;18.50;89.40;;;;;;5045224;28;20474;-71
2023/05/23 11:55:22;;;;;;;12.90;3.83;;;18.50;88.90;;;;;;5045238;28;20032;-71
2023/05/23 11:57:48;;;;;;;12.63;3.50;;;18.50;87.70;;;;;;5046106;28;20035;-70
2023/05/23 12:00:15;;;;;;;12.13;3.38;;;18.50;88.10;;;;;;5046720;28;20033;-69
2023/05/23 12:02:42;;;;;;;13.00;3.53;;;18.50;89.20;;;;;;5045139;28;20032;-71
2023/05/23 12:05:10;;;;;;;14.02;3.72;;;18.50;89.40;;;;;;5037438;28;20041;-70
2023/05/23 12:07:40;;;;;;;13.13;3.60;;;18.50;88.00;;;;;;5035688;28;20051;-70
2023/05/23 12:10:06;;;;;;;17.85;4.03;;;18.50;89.30;;;;;;5039583;28;20041;-74
2023/05/23 12:12:31;;;;;;;25.67;4.40;;;18.50;90.40;;;;;;5038567;28;20398;-73
2023/05/23 12:14:57;;;;;;;12.32;3.28;;;18.60;90.20;;;;;;5046769;28;20021;-70
2023/05/23 12:17:23;;;;;;;11.38;3.47;;;18.60;88.90;;;;;;5038580;28;20040;-70
2023/05/23 12:19:49;;;;;;;13.02;3.13;;;18.60;87.60;;;;;;5052146;28;20037;-72
2023/05/23 12:22:24;;;;;;;10.75;3.28;;;18.60;88.00;;;;;;5073679;28;20029;-72
2023/05/23 12:24:56;;;;;;;17.33;4.00;;;18.70;88.00;;;;;;5052983;28;20033;-72
2023/05/23 12:27:26;;;;;;;;;;;18.60;87.20;;;;;;5051897;28;20079;-72
2023/05/23 12:30:06;;;;;;;14.10;3.05;;;18.60;87.50;;;;;;5052955;28;20027;-69
2023/05/23 12:32:32;;;;;;;11.98;3.58;;;18.60;87.40;;;;;;5060040;28;20029;-69
2023/05/23 12:34:58;;;;;;;14.60;3.65;;;18.60;88.10;;;;;;5055532;28;20063;-67
2023/05/23 12:37:24;;;;;;;14.00;3.30;;;18.60;87.00;;;;;;5045189;28;20049;-68